createdAt,value
2022-07-29T00:01:26.277Z,18.52
2022-07-29T00:02:33.669Z,18.6
2022-07-29T00:04:33.678Z,18.62
2022-07-29T00:06:33.658Z,18.6
2022-07-29T00:08:33.630Z,18.47
2022-07-29T00:10:33.615Z,18.43
2022-07-29T00:12:33.659Z,18.4
2022-07-29T00:14:33.648Z,18.39
2022-07-29T00:16:33.738Z,18.29
2022-07-29T00:17:47.958Z,18.32
2022-07-29T00:19:47.952Z,18.37
2022-07-29T00:21:47.990Z,18.41
2022-07-29T00:23:47.954Z,18.38
2022-07-29T00:25:48.082Z,18.31
2022-07-29T00:27:47.948Z,18.24
2022-07-29T00:29:47.950Z,18.22
2022-07-29T00:31:48.078Z,18.37
2022-07-29T00:32:55.616Z,18.44
2022-07-29T00:34:55.610Z,18.34
2022-07-29T00:36:55.625Z,18.43
2022-07-29T00:38:55.648Z,18.42
2022-07-29T00:40:55.637Z,18.49
2022-07-29T00:42:55.600Z,18.49
2022-07-29T00:44:55.626Z,18.4
2022-07-29T00:46:55.685Z,18.46
2022-07-29T00:48:29.813Z,18.51
2022-07-29T00:50:29.763Z,18.47
2022-07-29T00:52:29.763Z,18.45
2022-07-29T00:54:29.811Z,18.36
2022-07-29T00:56:29.762Z,18.34
2022-07-29T00:58:29.755Z,18.37
2022-07-29T01:00:29.925Z,18.27
2022-07-29T01:03:13.802Z,18.27
2022-07-29T01:05:13.759Z,18.23
2022-07-29T01:07:13.793Z,18.29
2022-07-29T01:09:13.742Z,18.34
2022-07-29T01:11:13.736Z,18.38
2022-07-29T01:13:13.762Z,18.37
2022-07-29T01:15:13.795Z,18.29
2022-07-29T01:17:13.745Z,18.29
2022-07-29T01:19:08.384Z,18.4
2022-07-29T01:21:08.412Z,18.49
2022-07-29T01:23:08.387Z,18.44
2022-07-29T01:25:08.416Z,17.98
2022-07-29T01:27:08.367Z,18.11
2022-07-29T01:29:08.647Z,18.15
2022-07-29T01:31:08.405Z,18.18
2022-07-29T01:33:29.756Z,18.23
2022-07-29T01:35:29.707Z,18.26
2022-07-29T01:37:29.709Z,18.11
2022-07-29T01:39:29.717Z,18.01
2022-07-29T01:41:29.764Z,18.15
2022-07-29T01:43:29.706Z,18.2
2022-07-29T01:45:29.735Z,18.1
2022-07-29T01:47:29.693Z,18.16
2022-07-29T01:49:35.406Z,18.24
2022-07-29T01:51:35.423Z,18.2
2022-07-29T01:53:38.232Z,18.1
2022-07-29T01:55:35.402Z,18.1
2022-07-29T01:57:35.413Z,18.11
2022-07-29T01:59:35.437Z,18.1
2022-07-29T02:01:35.780Z,18.13
2022-07-29T02:03:52.285Z,18.15
2022-07-29T02:05:52.224Z,18.1
2022-07-29T02:07:52.278Z,18.02
2022-07-29T02:09:52.243Z,17.9
2022-07-29T02:11:52.262Z,18.01
2022-07-29T02:13:52.261Z,18.08
2022-07-29T02:15:52.453Z,18.1
2022-07-29T02:17:52.371Z,18.01
2022-07-29T02:19:47.939Z,18
2022-07-29T02:21:47.901Z,17.92
2022-07-29T02:23:50.773Z,17.84
2022-07-29T02:25:47.931Z,17.83
2022-07-29T02:27:47.907Z,17.87
2022-07-29T02:29:47.943Z,17.81
2022-07-29T02:31:47.891Z,17.79
2022-07-29T02:34:22.385Z,17.75
2022-07-29T02:36:22.434Z,17.75
2022-07-29T02:38:22.380Z,17.73
2022-07-29T02:40:22.413Z,17.66
2022-07-29T02:42:22.375Z,17.68
2022-07-29T02:44:22.686Z,17.76
2022-07-29T02:46:28.170Z,17.79
2022-07-29T02:49:25.965Z,17.74
2022-07-29T02:51:41.262Z,17.56
2022-07-29T02:53:25.877Z,17.77
2022-07-29T02:55:26.004Z,17.78
2022-07-29T02:57:25.887Z,17.86
2022-07-29T02:59:26.000Z,17.83
2022-07-29T03:01:25.876Z,17.81
2022-07-29T03:03:25.881Z,17.83
2022-07-29T03:04:49.389Z,17.83
2022-07-29T03:06:49.033Z,17.88
2022-07-29T03:08:49.185Z,17.86
2022-07-29T03:10:49.088Z,17.75
2022-07-29T03:12:48.997Z,17.82
2022-07-29T03:14:49.228Z,17.83
2022-07-29T03:16:49.075Z,17.83
2022-07-29T03:20:07.821Z,17.79
2022-07-29T03:22:07.848Z,17.77
2022-07-29T03:24:10.457Z,17.83
2022-07-29T03:26:07.836Z,17.75
2022-07-29T03:28:07.808Z,17.78
2022-07-29T03:30:08.250Z,17.81
2022-07-29T03:32:08.539Z,17.82
2022-07-29T03:35:31.320Z,17.86
2022-07-29T03:37:31.309Z,18.05
2022-07-29T03:39:31.257Z,18.79
2022-07-29T03:41:31.325Z,18.86
2022-07-29T03:43:31.281Z,20.09
2022-07-29T03:45:31.302Z,21.14
2022-07-29T03:47:43.428Z,21.91
2022-07-29T03:50:54.539Z,22.92
2022-07-29T03:52:54.473Z,23.38
2022-07-29T03:54:54.467Z,23.69
2022-07-29T03:56:54.490Z,23.65
2022-07-29T03:58:54.493Z,24.11
2022-07-29T04:00:54.456Z,24.73
2022-07-29T04:02:54.503Z,25.09
2022-07-29T04:05:28.949Z,25.28
2022-07-29T04:07:28.979Z,25.33
2022-07-29T04:09:28.993Z,25.86
2022-07-29T04:11:28.957Z,26.7
2022-07-29T04:13:28.979Z,27.29
2022-07-29T04:15:31.271Z,27.29
2022-07-29T04:17:28.941Z,27.51
2022-07-29T04:21:00.574Z,28.11
2022-07-29T04:23:00.527Z,26.69
2022-07-29T04:25:03.890Z,25.75
2022-07-29T04:27:00.576Z,25.37
2022-07-29T04:29:00.559Z,25.88
2022-07-29T04:31:00.633Z,26
2022-07-29T04:33:00.518Z,26.25
2022-07-29T04:35:49.768Z,26.54
2022-07-29T04:37:45.828Z,26.42
2022-07-29T04:39:45.821Z,26.88
2022-07-29T04:41:45.837Z,27.57
2022-07-29T04:43:46.006Z,28.18
2022-07-29T04:45:45.834Z,28.76
2022-07-29T04:47:46.057Z,29.5
2022-07-29T04:51:10.134Z,30.59
2022-07-29T04:53:09.923Z,31.45
2022-07-29T04:55:09.935Z,31.6
2022-07-29T04:57:09.942Z,31.9
2022-07-29T04:59:09.891Z,32.22
2022-07-29T05:01:09.972Z,32.39
2022-07-29T05:03:10.001Z,32.58
2022-07-29T05:06:06.113Z,31.21
2022-07-29T05:08:06.109Z,30.41
2022-07-29T05:10:06.214Z,29.74
2022-07-29T05:12:06.107Z,29.48
2022-07-29T05:14:06.128Z,29.22
2022-07-29T05:16:06.142Z,28.85
2022-07-29T05:18:06.170Z,28.48
2022-07-29T05:21:34.924Z,27.61
2022-07-29T05:23:34.970Z,27.21
2022-07-29T05:25:42.102Z,27.41
2022-07-29T05:27:34.905Z,27.16
2022-07-29T05:29:43.484Z,27.03
2022-07-29T05:31:34.900Z,27.1
2022-07-29T05:33:37.000Z,27.1
2022-07-29T05:36:24.363Z,27.31
2022-07-29T05:38:24.404Z,27.16
2022-07-29T05:40:24.370Z,27.23
2022-07-29T05:42:24.414Z,27
2022-07-29T05:44:25.267Z,26.62
2022-07-29T05:46:24.419Z,26.49
2022-07-29T05:48:24.395Z,26.06
2022-07-29T05:52:11.910Z,25.83
2022-07-29T05:54:11.965Z,26.01
2022-07-29T05:56:11.911Z,26.16
2022-07-29T05:58:11.931Z,25.96
2022-07-29T06:00:11.948Z,25.47
2022-07-29T06:02:11.906Z,25.51
2022-07-29T06:04:11.941Z,25.67
2022-07-29T06:07:07.776Z,25.51
2022-07-29T06:09:09.206Z,25.21
2022-07-29T06:11:07.952Z,25.27
2022-07-29T06:13:08.056Z,25.48
2022-07-29T06:15:07.925Z,25.15
2022-07-29T06:17:07.774Z,25.48
2022-07-29T06:19:07.924Z,25.27
2022-07-29T06:21:43.266Z,25.54
2022-07-29T06:23:43.279Z,25.23
2022-07-29T06:25:43.321Z,25.72
2022-07-29T06:27:43.292Z,26.33
2022-07-29T06:29:43.263Z,25.9
2022-07-29T06:31:43.217Z,25.56
2022-07-29T06:33:43.521Z,25.61
2022-07-29T06:35:44.731Z,25.67
2022-07-29T06:37:32.935Z,25.82
2022-07-29T06:39:32.937Z,26.09
2022-07-29T06:41:32.863Z,26.39
2022-07-29T06:43:33.006Z,26.63
2022-07-29T06:45:32.979Z,26.95
2022-07-29T06:47:32.867Z,26.77
2022-07-29T06:49:32.988Z,27.48
2022-07-29T06:52:36.829Z,27.12
2022-07-29T06:54:36.823Z,27.32
2022-07-29T06:56:38.736Z,27.29
2022-07-29T06:58:36.801Z,27.71
2022-07-29T07:00:36.784Z,27.82
2022-07-29T07:02:36.794Z,27.83
2022-07-29T07:04:37.987Z,27.52
2022-07-29T07:07:42.132Z,26.8
2022-07-29T07:09:42.104Z,27.35
2022-07-29T07:11:42.145Z,27.3
2022-07-29T07:13:42.121Z,27.9
2022-07-29T07:15:42.098Z,28.03
2022-07-29T07:17:42.092Z,27.48
2022-07-29T07:19:42.101Z,27.5
2022-07-29T07:22:28.150Z,27.48
2022-07-29T07:24:28.150Z,27.27
2022-07-29T07:26:28.213Z,27.13
2022-07-29T07:28:28.153Z,27.57
2022-07-29T07:30:28.144Z,26.77
2022-07-29T07:32:28.240Z,26.93
2022-07-29T07:34:28.451Z,26.87
2022-07-29T07:36:28.174Z,26.82
2022-07-29T07:37:39.191Z,26.67
2022-07-29T07:39:39.129Z,26.68
2022-07-29T07:41:39.045Z,26.54
2022-07-29T07:43:39.227Z,26.83
2022-07-29T07:45:39.116Z,26.82
2022-07-29T07:47:39.031Z,26.74
2022-07-29T07:49:39.164Z,26.42
2022-07-29T07:51:39.030Z,26.89
2022-07-29T07:53:36.630Z,27.51
2022-07-29T07:56:00.272Z,27.92
2022-07-29T07:57:36.257Z,27.85
2022-07-29T07:59:36.357Z,27.62
2022-07-29T08:01:48.222Z,28.03
2022-07-29T08:03:36.375Z,27.46
2022-07-29T08:05:36.281Z,27.53
2022-07-29T08:08:03.142Z,27.68
2022-07-29T08:10:03.004Z,27.64
2022-07-29T08:12:03.063Z,27.92
2022-07-29T08:14:03.020Z,27.87
2022-07-29T08:16:03.097Z,28.23
2022-07-29T08:18:08.018Z,28.76
2022-07-29T08:20:03.037Z,28.85
2022-07-29T08:22:02.941Z,27.85
2022-07-29T08:23:09.237Z,27.92
2022-07-29T08:25:09.230Z,27.88
2022-07-29T08:27:21.471Z,28.24
2022-07-29T08:29:09.263Z,28.14
2022-07-29T08:31:09.284Z,28.63
2022-07-29T08:33:09.193Z,28.71
2022-07-29T08:35:09.172Z,29.27
2022-07-29T08:37:09.205Z,29.03
2022-07-29T08:39:01.141Z,28.37
2022-07-29T08:41:01.187Z,28.82
2022-07-29T08:43:01.132Z,29.04
2022-07-29T08:45:01.152Z,29.26
2022-07-29T08:47:01.162Z,29.29
2022-07-29T08:49:01.218Z,29.66
2022-07-29T08:51:01.195Z,28.42
2022-07-29T08:54:14.936Z,29.08
2022-07-29T08:56:14.885Z,29.08
2022-07-29T08:58:15.670Z,28.48
2022-07-29T09:00:14.878Z,29.17
2022-07-29T09:02:14.939Z,28.82
2022-07-29T09:04:14.929Z,28.82
2022-07-29T09:06:14.918Z,28.32
2022-07-29T09:09:31.277Z,28.3
2022-07-29T09:11:30.985Z,28.31
2022-07-29T09:13:31.290Z,28.58
2022-07-29T09:15:30.984Z,27.72
2022-07-29T09:17:31.318Z,27.66
2022-07-29T09:19:30.987Z,27.46
2022-07-29T09:21:31.211Z,27.52
2022-07-29T09:23:59.015Z,28.77
2022-07-29T09:25:58.933Z,28.89
2022-07-29T09:27:58.940Z,28.9
2022-07-29T09:29:58.939Z,29.39
2022-07-29T09:31:59.128Z,29.82
2022-07-29T09:33:58.960Z,29.97
2022-07-29T09:35:58.923Z,30.2
2022-07-29T09:39:38.467Z,30.38
2022-07-29T09:41:38.629Z,30.2
2022-07-29T09:43:38.620Z,29.87
2022-07-29T09:45:38.444Z,30.07
2022-07-29T09:47:38.300Z,30.31
2022-07-29T09:49:38.385Z,29.51
2022-07-29T09:51:38.957Z,30.07
2022-07-29T09:54:52.884Z,30.85
2022-07-29T09:56:53.112Z,31.07
2022-07-29T09:58:52.893Z,30.72
2022-07-29T10:00:53.016Z,30.96
2022-07-29T10:02:52.894Z,31.06
2022-07-29T10:04:52.911Z,31.04
2022-07-29T10:06:52.887Z,30.01
2022-07-29T10:09:48.763Z,30.23
2022-07-29T10:11:49.152Z,30.82
2022-07-29T10:13:48.658Z,30.78
2022-07-29T10:15:48.731Z,30.78
2022-07-29T10:17:48.654Z,31.15
2022-07-29T10:19:48.676Z,31.73
2022-07-29T10:21:48.710Z,31.73
2022-07-29T10:24:45.321Z,31.67
2022-07-29T10:26:45.484Z,31.85
2022-07-29T10:28:45.323Z,31.25
2022-07-29T10:30:45.419Z,31.53
2022-07-29T10:32:45.324Z,31.36
2022-07-29T10:34:45.352Z,31.39
2022-07-29T10:36:45.428Z,31.34
2022-07-29T10:40:28.468Z,31.18
2022-07-29T10:42:29.463Z,30.91
2022-07-29T10:44:28.447Z,30.71
2022-07-29T10:46:28.493Z,31.59
2022-07-29T10:48:28.451Z,31.44
2022-07-29T10:50:28.489Z,31.22
2022-07-29T10:52:30.095Z,31.52
2022-07-29T10:55:18.019Z,32.07
2022-07-29T10:57:18.207Z,32.32
2022-07-29T10:59:18.071Z,32.03
2022-07-29T11:01:18.061Z,32.2
2022-07-29T11:03:18.048Z,32.57
2022-07-29T11:05:18.076Z,31.81
2022-07-29T11:07:18.047Z,30.82
2022-07-29T11:10:51.716Z,31.14
2022-07-29T11:12:51.692Z,31.2
2022-07-29T11:14:51.739Z,31.6
2022-07-29T11:16:51.741Z,31.62
2022-07-29T11:18:51.730Z,31.37
2022-07-29T11:20:51.801Z,32.29
2022-07-29T11:22:51.772Z,32.58
2022-07-29T11:25:58.698Z,32.1
2022-07-29T11:27:58.693Z,32.16
2022-07-29T11:29:58.880Z,31.44
2022-07-29T11:31:59.007Z,31.4
2022-07-29T11:34:02.461Z,31.52
2022-07-29T11:36:00.705Z,31.93
2022-07-29T11:37:58.696Z,32.11
2022-07-29T11:40:48.094Z,32.04
2022-07-29T11:42:48.046Z,32.31
2022-07-29T11:44:48.045Z,32.93
2022-07-29T11:46:48.037Z,33.1
2022-07-29T11:48:48.112Z,32.62
2022-07-29T11:50:48.139Z,32.62
2022-07-29T11:52:49.428Z,32.62
2022-07-29T11:55:35.336Z,32.54
2022-07-29T11:57:36.756Z,32.59
2022-07-29T11:59:35.356Z,32.63
2022-07-29T12:01:35.372Z,32.64
2022-07-29T12:03:36.616Z,32.28
2022-07-29T12:05:36.085Z,32.14
2022-07-29T12:07:35.412Z,32.58
2022-07-29T12:09:40.206Z,32.74
2022-07-29T12:11:31.321Z,31.77
2022-07-29T12:13:37.368Z,32.06
2022-07-29T12:15:39.202Z,32.58
2022-07-29T12:17:31.378Z,32.76
2022-07-29T12:19:31.468Z,32.22
2022-07-29T12:21:31.396Z,32.03
2022-07-29T12:23:34.604Z,31.79
2022-07-29T12:25:56.997Z,31.67
2022-07-29T12:27:57.089Z,31.74
2022-07-29T12:29:56.994Z,31.82
2022-07-29T12:31:57.909Z,31.88
2022-07-29T12:33:57.002Z,31.79
2022-07-29T12:36:17.270Z,31.77
2022-07-29T12:37:57.046Z,31.76
2022-07-29T12:39:57.038Z,31.73
2022-07-29T12:41:32.469Z,32.04
2022-07-29T12:43:32.469Z,32.02
2022-07-29T12:45:32.382Z,31.82
2022-07-29T12:47:32.400Z,31.68
2022-07-29T12:49:32.418Z,31.93
2022-07-29T12:51:32.408Z,32.02
2022-07-29T12:53:32.448Z,32.33
2022-07-29T12:56:33.439Z,32.41
2022-07-29T12:58:16.717Z,32.65
2022-07-29T13:00:16.637Z,32.02
2022-07-29T13:02:16.649Z,32.08
2022-07-29T13:04:16.573Z,31.85
2022-07-29T13:06:16.693Z,31.37
2022-07-29T13:08:20.033Z,31.73
2022-07-29T13:10:16.606Z,31.93
2022-07-29T13:11:52.538Z,32.03
2022-07-29T13:14:03.079Z,31.92
2022-07-29T13:15:52.425Z,31.66
2022-07-29T13:17:52.450Z,31.46
2022-07-29T13:19:52.358Z,31.32
2022-07-29T13:21:52.428Z,31.56
2022-07-29T13:23:52.373Z,31.66
2022-07-29T13:27:15.294Z,32.17
2022-07-29T13:29:15.267Z,32.64
2022-07-29T13:31:15.272Z,31.99
2022-07-29T13:33:15.333Z,31.79
2022-07-29T13:35:15.271Z,31.63
2022-07-29T13:37:15.337Z,31.04
2022-07-29T13:39:15.215Z,31.5
2022-07-29T13:42:10.507Z,31.93
2022-07-29T13:44:06.577Z,30.99
2022-07-29T13:46:06.657Z,31.51
2022-07-29T13:48:06.601Z,32.12
2022-07-29T13:50:06.980Z,32.06
2022-07-29T13:52:06.672Z,31.97
2022-07-29T13:54:06.758Z,31.97
2022-07-29T13:57:33.407Z,31.97
2022-07-29T13:59:33.164Z,32.34
2022-07-29T14:01:33.256Z,32.44
2022-07-29T14:03:33.237Z,31.95
2022-07-29T14:05:33.190Z,31.96
2022-07-29T14:07:33.277Z,31.95
2022-07-29T14:09:37.477Z,31.74
2022-07-29T14:12:05.133Z,31.84
2022-07-29T14:14:05.136Z,32.03
2022-07-29T14:16:05.171Z,32.18
2022-07-29T14:18:05.084Z,32.04
2022-07-29T14:20:05.152Z,32.05
2022-07-29T14:22:05.113Z,32.17
2022-07-29T14:24:05.122Z,32.52
2022-07-29T14:26:05.154Z,32.79
2022-07-29T14:27:47.526Z,32.25
2022-07-29T14:29:47.595Z,31.85
2022-07-29T14:31:47.563Z,31.63
2022-07-29T14:33:49.103Z,31.78
2022-07-29T14:35:47.556Z,32
2022-07-29T14:37:47.630Z,32.05
2022-07-29T14:39:47.566Z,32.02
2022-07-29T14:42:33.248Z,32
2022-07-29T14:44:33.322Z,31.91
2022-07-29T14:46:33.288Z,31.76
2022-07-29T14:48:33.266Z,31.74
2022-07-29T14:50:33.213Z,31.88
2022-07-29T14:52:33.280Z,31.84
2022-07-29T14:54:33.350Z,31.9
2022-07-29T14:56:36.836Z,32.04
2022-07-29T14:58:49.045Z,32.08
2022-07-29T15:00:44.505Z,32.17
2022-07-29T15:03:00.754Z,32.17
2022-07-29T15:04:44.058Z,32.06
2022-07-29T15:06:44.030Z,32.06
2022-07-29T15:08:43.940Z,32.11
2022-07-29T15:10:43.935Z,32.02
2022-07-29T15:13:47.674Z,32.11
2022-07-29T15:15:47.778Z,32.22
2022-07-29T15:17:47.854Z,32.1
2022-07-29T15:19:47.701Z,32.04
2022-07-29T15:21:48.352Z,31.95
2022-07-29T15:23:47.658Z,31.86
2022-07-29T15:25:47.654Z,31.77
2022-07-29T15:28:37.648Z,31.78
2022-07-29T15:30:37.531Z,31.85
2022-07-29T15:32:37.714Z,31.84
2022-07-29T15:34:37.550Z,31.85
2022-07-29T15:36:53.676Z,31.85
2022-07-29T15:38:40.513Z,31.79
2022-07-29T15:40:37.641Z,31.64
2022-07-29T15:43:23.924Z,31.59
2022-07-29T15:45:24.102Z,31.6
2022-07-29T15:47:24.000Z,31.55
2022-07-29T15:49:23.880Z,31.52
2022-07-29T15:51:24.110Z,31.53
2022-07-29T15:53:23.855Z,31.53
2022-07-29T15:55:23.957Z,31.51
2022-07-29T15:57:23.955Z,31.42
2022-07-29T15:58:30.462Z,31.38
2022-07-29T16:00:30.459Z,31.4
2022-07-29T16:02:30.477Z,31.38
2022-07-29T16:04:30.482Z,31.37
2022-07-29T16:06:30.547Z,31.29
2022-07-29T16:08:30.466Z,31.27
2022-07-29T16:10:30.522Z,31.22
2022-07-29T16:12:30.461Z,30.54
2022-07-29T16:14:13.560Z,30.73
2022-07-29T16:16:13.622Z,30.91
2022-07-29T16:18:13.550Z,30.66
2022-07-29T16:20:13.835Z,30.67
2022-07-29T16:22:13.522Z,30.21
2022-07-29T16:24:13.552Z,30.26
2022-07-29T16:26:13.633Z,29.97
2022-07-29T16:28:59.345Z,30.21
2022-07-29T16:30:59.323Z,30.33
2022-07-29T16:32:59.571Z,30.27
2022-07-29T16:34:59.561Z,30.04
2022-07-29T16:36:59.602Z,29.95
2022-07-29T16:38:59.373Z,29.78
2022-07-29T16:40:59.338Z,29.8
2022-07-29T16:44:01.112Z,29.74
2022-07-29T16:46:01.144Z,29.49
2022-07-29T16:48:01.433Z,29.5
2022-07-29T16:50:01.070Z,29.38
2022-07-29T16:52:01.135Z,29.3
2022-07-29T16:54:01.632Z,29.17
2022-07-29T16:56:01.154Z,28.94
2022-07-29T16:58:01.128Z,28.83
2022-07-29T16:59:50.944Z,28.82
2022-07-29T17:01:51.023Z,28.78
2022-07-29T17:03:50.896Z,28.53
2022-07-29T17:05:53.642Z,28.29
2022-07-29T17:07:50.902Z,28.29
2022-07-29T17:09:55.185Z,28.24
2022-07-29T17:11:52.042Z,28.15
2022-07-29T17:14:58.930Z,28.08
2022-07-29T17:17:00.219Z,27.86
2022-07-29T17:18:58.749Z,27.85
2022-07-29T17:20:58.794Z,27.84
2022-07-29T17:22:59.154Z,27.73
2022-07-29T17:24:58.846Z,27.61
2022-07-29T17:26:59.143Z,27.54
2022-07-29T17:29:26.017Z,27.31
2022-07-29T17:31:26.049Z,27.3
2022-07-29T17:33:26.055Z,27.19
2022-07-29T17:35:26.021Z,27.08
2022-07-29T17:37:26.040Z,27.02
2022-07-29T17:39:26.021Z,27.04
2022-07-29T17:41:26.055Z,26.87
2022-07-29T17:43:26.002Z,26.78
2022-07-29T17:45:49.296Z,26.64
2022-07-29T17:47:31.793Z,26.56
2022-07-29T17:49:31.625Z,26.53
2022-07-29T17:51:31.667Z,26.4
2022-07-29T17:53:31.656Z,26.33
2022-07-29T17:55:31.599Z,26.28
2022-07-29T17:57:31.771Z,26.04
2022-07-29T18:00:19.201Z,26.07
2022-07-29T18:02:19.288Z,26
2022-07-29T18:04:19.225Z,25.94
2022-07-29T18:06:19.114Z,25.87
2022-07-29T18:08:19.162Z,25.73
2022-07-29T18:10:19.107Z,25.64
2022-07-29T18:12:19.208Z,25.57
2022-07-29T18:15:16.828Z,25.5
2022-07-29T18:17:16.790Z,25.42
2022-07-29T18:19:16.886Z,25.37
2022-07-29T18:21:16.779Z,25.27
2022-07-29T18:23:16.762Z,25.42
2022-07-29T18:25:16.822Z,25.47
2022-07-29T18:27:16.802Z,25.37
2022-07-29T18:30:25.564Z,25.17
2022-07-29T18:32:28.701Z,25.12
2022-07-29T18:34:25.521Z,25.07
2022-07-29T18:36:25.555Z,24.82
2022-07-29T18:38:25.535Z,24.77
2022-07-29T18:40:25.590Z,24.7
2022-07-29T18:42:25.537Z,24.63
2022-07-29T18:45:19.408Z,24.72
2022-07-29T18:47:18.210Z,24.74
2022-07-29T18:49:18.274Z,24.68
2022-07-29T18:51:18.184Z,24.54
2022-07-29T18:53:18.443Z,24.55
2022-07-29T18:55:20.761Z,24.53
2022-07-29T18:57:54.047Z,24.39
2022-07-29T18:59:18.171Z,24.39
2022-07-29T19:01:03.231Z,24.44
2022-07-29T19:03:03.321Z,24.5
2022-07-29T19:05:03.267Z,24.59
2022-07-29T19:07:03.198Z,24.6
2022-07-29T19:09:03.224Z,24.52
2022-07-29T19:11:03.166Z,24.42
2022-07-29T19:13:03.239Z,24.36
2022-07-29T19:16:11.382Z,24.27
2022-07-29T19:18:11.513Z,24.27
2022-07-29T19:20:11.539Z,24.23
2022-07-29T19:22:11.447Z,24.2
2022-07-29T19:24:15.341Z,24.14
2022-07-29T19:26:11.330Z,24.11
2022-07-29T19:28:11.282Z,24.03
2022-07-29T19:31:04.564Z,24.01
2022-07-29T19:33:04.519Z,23.99
2022-07-29T19:35:04.594Z,23.99
2022-07-29T19:37:04.583Z,23.98
2022-07-29T19:39:04.831Z,23.94
2022-07-29T19:41:04.518Z,23.93
2022-07-29T19:43:04.479Z,23.98
2022-07-29T19:46:31.458Z,23.99
2022-07-29T19:48:31.324Z,24.02
2022-07-29T19:50:31.301Z,24
2022-07-29T19:52:31.358Z,23.94
2022-07-29T19:54:31.265Z,23.78
2022-07-29T19:56:31.306Z,23.8
2022-07-29T19:58:31.296Z,23.72
2022-07-29T20:01:16.023Z,23.65
2022-07-29T20:03:16.140Z,23.67
2022-07-29T20:05:15.938Z,23.66
2022-07-29T20:07:16.001Z,23.57
2022-07-29T20:09:16.773Z,23.47
2022-07-29T20:11:16.034Z,23.42
2022-07-29T20:13:16.210Z,23.43
2022-07-29T20:17:11.126Z,23.44
2022-07-29T20:19:11.081Z,23.42
2022-07-29T20:21:14.090Z,23.34
2022-07-29T20:41:39.094Z,22.74
2022-07-29T20:43:39.303Z,22.77
2022-07-29T20:46:38.660Z,22.67
2022-07-29T20:48:38.901Z,22.73
2022-07-29T20:50:38.610Z,22.74
2022-07-29T20:52:39.212Z,22.65
2022-07-29T20:54:38.879Z,22.54
2022-07-29T20:56:38.857Z,22.55
2022-07-29T20:58:38.565Z,22.5
2022-07-29T21:00:38.607Z,22.5
2022-07-29T21:02:11.186Z,22.42
2022-07-29T21:04:11.219Z,22.4
2022-07-29T21:06:11.143Z,22.39
2022-07-29T21:08:11.207Z,22.24
2022-07-29T21:10:11.124Z,22.26
2022-07-29T21:12:11.122Z,22.25
2022-07-29T21:14:11.160Z,22.25
2022-07-29T21:17:52.558Z,22.17
2022-07-29T21:19:52.833Z,22.15
2022-07-29T21:21:52.520Z,22
2022-07-29T21:23:52.532Z,21.98
2022-07-29T21:25:52.506Z,21.89
2022-07-29T21:27:52.532Z,21.83
2022-07-29T21:29:52.537Z,21.86
2022-07-29T21:32:09.790Z,21.9
2022-07-29T21:34:10.148Z,21.92
2022-07-29T21:36:46.339Z,21.92
2022-07-29T21:38:09.916Z,21.85
2022-07-29T21:40:09.752Z,21.86
2022-07-29T21:42:09.768Z,21.76
2022-07-29T21:44:09.729Z,21.77
2022-07-29T21:46:09.885Z,21.75
2022-07-29T21:48:06.931Z,21.68
2022-07-29T21:50:06.960Z,21.74
2022-07-29T21:52:07.950Z,21.68
2022-07-29T21:54:06.991Z,21.65
2022-07-29T21:56:07.657Z,21.68
2022-07-29T21:58:06.935Z,21.68
2022-07-29T22:00:07.023Z,21.64
2022-07-29T22:03:16.261Z,21.54
2022-07-29T22:05:16.086Z,21.49
2022-07-29T22:07:16.080Z,21.48
2022-07-29T22:09:16.071Z,21.5
2022-07-29T22:11:16.099Z,21.47
2022-07-29T22:13:16.080Z,21.46
2022-07-29T22:15:16.128Z,21.28
2022-07-29T22:18:28.375Z,21.32
2022-07-29T22:20:28.329Z,21.33
2022-07-29T22:22:28.370Z,21.33
2022-07-29T22:24:28.374Z,21.31
2022-07-29T22:26:28.640Z,21.32
2022-07-29T22:28:28.512Z,21.27
2022-07-29T22:30:28.681Z,21.32
2022-07-29T22:33:23.918Z,21.22
2022-07-29T22:35:23.869Z,21.21
2022-07-29T22:37:23.886Z,21.23
2022-07-29T22:39:23.947Z,21.17
2022-07-29T22:41:24.227Z,21.18
2022-07-29T22:43:24.143Z,21.13
2022-07-29T22:45:24.070Z,21.08
2022-07-29T22:48:54.521Z,21.06
2022-07-29T22:50:54.424Z,20.99
2022-07-29T22:52:54.116Z,21.07
2022-07-29T22:54:54.089Z,21.02
2022-07-29T22:56:54.102Z,21.07
2022-07-29T22:58:54.126Z,21.07
2022-07-29T23:00:54.658Z,21.05
2022-07-29T23:03:36.210Z,21
2022-07-29T23:05:36.215Z,21.02
2022-07-29T23:07:36.151Z,21.03
2022-07-29T23:09:36.198Z,21
2022-07-29T23:11:36.155Z,20.99
2022-07-29T23:13:36.191Z,20.93
2022-07-29T23:15:36.359Z,20.96
2022-07-29T23:18:22.094Z,20.95
2022-07-29T23:20:22.113Z,20.94
2022-07-29T23:22:22.091Z,20.84
2022-07-29T23:24:22.105Z,20.88
2022-07-29T23:26:22.079Z,20.88
2022-07-29T23:28:22.581Z,20.87
2022-07-29T23:30:22.119Z,20.84
2022-07-29T23:32:22.137Z,20.84
2022-07-29T23:34:21.114Z,20.71
2022-07-29T23:36:21.088Z,20.75
2022-07-29T23:38:21.198Z,20.78
2022-07-29T23:40:21.039Z,20.78
2022-07-29T23:42:21.074Z,20.75
2022-07-29T23:44:21.054Z,20.74
2022-07-29T23:46:23.815Z,20.65
2022-07-29T23:48:48.458Z,20.69
2022-07-29T23:50:48.469Z,20.61
2022-07-29T23:52:48.453Z,20.58
2022-07-29T23:54:48.464Z,20.56
2022-07-29T23:56:48.497Z,20.55
2022-07-29T23:58:48.455Z,20.47
